createdAt,value
2022-12-25T00:00:28.466Z,56.07
2022-12-25T00:01:28.381Z,56.07
2022-12-25T00:02:28.438Z,55.75
2022-12-25T00:03:28.494Z,56.24
2022-12-25T00:04:28.366Z,38.83
2022-12-25T00:05:28.381Z,38.51
2022-12-25T00:06:28.395Z,41.09
2022-12-25T00:07:28.399Z,42.70
2022-12-25T00:08:28.328Z,43.18
2022-12-25T00:09:28.349Z,43.83
2022-12-25T00:10:28.309Z,41.89
2022-12-25T00:11:28.296Z,40.77
2022-12-25T00:12:28.294Z,41.25
2022-12-25T00:13:28.376Z,42.54
2022-12-25T00:14:30.824Z,40.12
2022-12-25T00:15:30.396Z,40.44
2022-12-25T00:16:30.348Z,42.06
2022-12-25T00:17:28.962Z,40.61
2022-12-25T00:18:28.311Z,42.06
2022-12-25T00:19:29.891Z,41.57
2022-12-25T00:20:29.316Z,41.73
2022-12-25T00:21:29.904Z,41.25
2022-12-25T00:22:30.475Z,41.41
2022-12-25T00:23:28.821Z,41.41
2022-12-25T00:24:29.838Z,42.38
2022-12-25T00:25:29.832Z,44.79
2022-12-25T00:26:30.325Z,41.57
2022-12-25T00:27:28.260Z,41.09
2022-12-25T00:28:29.045Z,43.02
2022-12-25T00:29:29.930Z,41.73
2022-12-25T00:30:28.890Z,42.22
2022-12-25T00:31:29.001Z,41.89
2022-12-25T00:32:30.910Z,42.38
2022-12-25T00:33:29.892Z,42.06
2022-12-25T00:34:29.820Z,44.31
2022-12-25T00:35:28.221Z,43.18
2022-12-25T00:36:33.622Z,42.38
2022-12-25T00:37:30.897Z,41.57
2022-12-25T00:38:29.828Z,40.28
2022-12-25T00:39:29.012Z,40.93
2022-12-25T00:40:29.581Z,40.77
2022-12-25T00:41:29.893Z,41.25
2022-12-25T00:42:30.834Z,43.02
2022-12-25T00:43:28.837Z,41.73
2022-12-25T00:44:29.869Z,41.25
2022-12-25T00:45:31.914Z,39.96
2022-12-25T00:46:29.376Z,40.61
2022-12-25T00:47:30.343Z,40.93
2022-12-25T00:48:30.896Z,41.09
2022-12-25T00:49:28.833Z,43.83
2022-12-25T00:50:31.835Z,41.73
2022-12-25T00:51:28.998Z,42.06
2022-12-25T00:52:31.407Z,42.06
2022-12-25T00:53:31.829Z,40.12
2022-12-25T00:54:31.385Z,41.09
2022-12-25T00:55:31.382Z,40.28
2022-12-25T00:56:29.542Z,41.09
2022-12-25T00:57:28.837Z,41.09
2022-12-25T00:58:28.831Z,42.22
2022-12-25T00:59:32.831Z,43.34
2022-12-25T01:00:30.834Z,57.04
2022-12-25T01:01:30.949Z,57.52
2022-12-25T01:02:30.493Z,57.04
2022-12-25T01:03:30.042Z,56.88
2022-12-25T01:04:30.331Z,57.36
2022-12-25T01:05:29.916Z,58.17
2022-12-25T01:06:29.409Z,58.65
2022-12-25T01:07:29.835Z,58.33
2022-12-25T01:08:45.346Z,57.85
2022-12-25T01:09:28.953Z,57.52
2022-12-25T01:10:30.831Z,57.36
2022-12-25T01:11:29.833Z,56.88
2022-12-25T01:12:29.340Z,56.07
2022-12-25T01:13:27.926Z,56.40
2022-12-25T01:14:29.338Z,55.75
2022-12-25T01:15:27.880Z,55.11
2022-12-25T01:16:29.915Z,55.27
2022-12-25T01:17:28.973Z,55.27
2022-12-25T01:18:30.348Z,56.24
2022-12-25T01:19:31.328Z,39.64
2022-12-25T01:20:28.390Z,39.96
2022-12-25T01:21:29.407Z,39.32
2022-12-25T01:22:29.926Z,38.35
2022-12-25T01:23:30.835Z,40.44
2022-12-25T01:24:31.349Z,39.96
2022-12-25T01:25:29.614Z,39.16
2022-12-25T01:26:30.376Z,38.99
2022-12-25T01:27:29.555Z,38.99
2022-12-25T01:28:28.844Z,39.16
2022-12-25T01:29:30.898Z,39.64
2022-12-25T01:30:30.540Z,39.96
2022-12-25T01:31:30.867Z,40.44
2022-12-25T01:32:28.358Z,40.12
2022-12-25T01:33:30.338Z,40.44
2022-12-25T01:34:29.832Z,40.61
2022-12-25T01:35:29.398Z,39.80
2022-12-25T01:36:29.838Z,40.77
2022-12-25T01:37:28.546Z,40.12
2022-12-25T01:38:30.333Z,41.41
2022-12-25T01:39:27.771Z,41.09
2022-12-25T01:40:29.336Z,41.41
2022-12-25T01:41:31.388Z,40.93
2022-12-25T01:42:29.901Z,42.06
2022-12-25T01:43:29.366Z,43.18
2022-12-25T01:44:28.560Z,40.77
2022-12-25T01:45:29.360Z,40.77
2022-12-25T01:46:33.425Z,40.12
2022-12-25T01:47:31.384Z,41.25
2022-12-25T01:48:31.394Z,41.57
2022-12-25T01:49:30.837Z,40.93
2022-12-25T01:50:29.333Z,41.25
2022-12-25T01:51:29.408Z,41.41
2022-12-25T01:52:29.406Z,57.52
2022-12-25T01:53:29.888Z,57.85
2022-12-25T01:54:29.838Z,56.07
2022-12-25T01:55:28.618Z,56.24
2022-12-25T01:56:29.840Z,56.88
2022-12-25T01:57:29.413Z,57.69
2022-12-25T01:58:29.399Z,58.17
2022-12-25T01:59:29.362Z,57.69
2022-12-25T02:00:29.409Z,58.01
2022-12-25T02:01:29.536Z,57.69
2022-12-25T02:02:31.444Z,57.69
2022-12-25T02:03:30.958Z,57.04
2022-12-25T02:04:28.835Z,56.40
2022-12-25T02:05:30.355Z,56.07
2022-12-25T02:06:28.841Z,56.07
2022-12-25T02:07:28.503Z,55.27
2022-12-25T02:08:30.355Z,55.75
2022-12-25T02:09:28.046Z,55.43
2022-12-25T02:10:28.345Z,55.59
2022-12-25T02:11:28.527Z,39.32
2022-12-25T02:12:30.348Z,39.32
2022-12-25T02:13:28.898Z,38.99
2022-12-25T02:14:28.849Z,40.28
2022-12-25T02:15:28.927Z,39.80
2022-12-25T02:16:28.896Z,40.44
2022-12-25T02:17:28.957Z,39.96
2022-12-25T02:18:34.408Z,39.16
2022-12-25T02:19:29.401Z,39.96
2022-12-25T02:20:29.842Z,41.09
2022-12-25T02:21:28.390Z,40.44
2022-12-25T02:22:28.843Z,39.96
2022-12-25T02:23:29.378Z,40.28
2022-12-25T02:24:28.362Z,40.93
2022-12-25T02:25:28.072Z,41.25
2022-12-25T02:26:28.371Z,41.25
2022-12-25T02:27:29.843Z,40.93
2022-12-25T02:28:28.897Z,41.09
2022-12-25T02:29:28.844Z,41.89
2022-12-25T02:30:27.895Z,40.77
2022-12-25T02:31:29.490Z,41.09
2022-12-25T02:32:30.344Z,40.93
2022-12-25T02:33:28.888Z,41.89
2022-12-25T02:34:28.378Z,41.09
2022-12-25T02:35:30.903Z,40.61
2022-12-25T02:36:28.561Z,40.77
2022-12-25T02:37:28.849Z,41.25
2022-12-25T02:38:28.899Z,42.86
2022-12-25T02:39:29.903Z,43.51
2022-12-25T02:40:28.909Z,43.51
2022-12-25T02:41:29.410Z,42.22
2022-12-25T02:42:29.851Z,41.73
2022-12-25T02:43:28.907Z,40.77
2022-12-25T02:44:29.032Z,41.09
2022-12-25T02:45:29.037Z,41.57
2022-12-25T02:46:27.860Z,40.77
2022-12-25T02:47:31.905Z,40.93
2022-12-25T02:48:28.853Z,41.25
2022-12-25T02:49:27.257Z,41.09
2022-12-25T02:50:28.561Z,42.70
2022-12-25T02:51:27.850Z,41.09
2022-12-25T02:52:30.849Z,41.41
2022-12-25T02:53:44.347Z,41.25
2022-12-25T02:54:30.892Z,41.41
2022-12-25T02:55:31.374Z,40.77
2022-12-25T02:56:27.848Z,41.73
2022-12-25T02:57:28.080Z,41.09
2022-12-25T02:58:27.863Z,41.25
2022-12-25T02:59:27.192Z,41.41
2022-12-25T03:00:29.076Z,42.38
2022-12-25T03:01:28.110Z,43.18
2022-12-25T03:02:27.490Z,42.06
2022-12-25T03:03:29.166Z,57.04
2022-12-25T03:04:29.179Z,57.52
2022-12-25T03:05:28.908Z,58.17
2022-12-25T03:06:27.934Z,56.72
2022-12-25T03:07:28.852Z,57.04
2022-12-25T03:08:27.568Z,57.52
2022-12-25T03:09:28.420Z,56.24
2022-12-25T03:10:27.993Z,56.24
2022-12-25T03:11:28.918Z,56.56
2022-12-25T03:12:27.850Z,56.24
2022-12-25T03:13:28.856Z,56.24
2022-12-25T03:14:27.914Z,56.40
2022-12-25T03:15:28.536Z,56.56
2022-12-25T03:16:28.967Z,56.40
2022-12-25T03:17:27.855Z,56.24
2022-12-25T03:18:27.866Z,55.91
2022-12-25T03:19:29.370Z,56.40
2022-12-25T03:20:27.930Z,56.07
2022-12-25T03:21:29.932Z,38.35
2022-12-25T03:22:27.973Z,39.48
2022-12-25T03:23:31.382Z,38.99
2022-12-25T03:24:29.394Z,39.64
2022-12-25T03:25:28.356Z,39.48
2022-12-25T03:26:26.928Z,39.64
2022-12-25T03:27:29.358Z,39.64
2022-12-25T03:28:29.375Z,39.80
2022-12-25T03:29:31.791Z,38.99
2022-12-25T03:30:27.957Z,39.64
2022-12-25T03:31:28.895Z,39.80
2022-12-25T03:32:26.886Z,39.96
2022-12-25T03:33:45.688Z,40.44
2022-12-25T03:34:30.863Z,41.25
2022-12-25T03:35:28.365Z,41.09
2022-12-25T03:36:31.362Z,40.93
2022-12-25T03:37:29.587Z,40.77
2022-12-25T03:38:27.367Z,40.44
2022-12-25T03:39:27.586Z,40.61
2022-12-25T03:40:28.375Z,40.44
2022-12-25T03:41:28.588Z,41.25
2022-12-25T03:42:28.370Z,40.93
2022-12-25T03:43:28.359Z,40.77
2022-12-25T03:44:29.417Z,40.77
2022-12-25T03:45:28.864Z,40.77
2022-12-25T03:46:28.933Z,40.77
2022-12-25T03:47:28.932Z,40.12
2022-12-25T03:48:26.715Z,40.28
2022-12-25T03:49:29.418Z,41.09
2022-12-25T03:50:28.359Z,41.09
2022-12-25T03:51:28.877Z,40.77
2022-12-25T03:52:28.422Z,40.93
2022-12-25T03:53:28.901Z,40.93
2022-12-25T03:54:29.369Z,41.09
2022-12-25T03:55:29.404Z,40.93
2022-12-25T03:56:28.363Z,41.57
2022-12-25T03:57:27.576Z,42.22
2022-12-25T03:58:29.864Z,42.06
2022-12-25T04:00:00.990Z,41.25
2022-12-25T04:00:26.592Z,40.61
2022-12-25T04:01:26.756Z,41.09
2022-12-25T04:02:26.735Z,40.93
2022-12-25T04:03:26.609Z,41.41
2022-12-25T04:04:26.549Z,40.93
2022-12-25T04:05:27.565Z,40.93
2022-12-25T04:06:26.565Z,40.77
2022-12-25T04:07:26.550Z,41.89
2022-12-25T04:08:26.570Z,41.09
2022-12-25T04:09:26.520Z,41.25
2022-12-25T04:10:26.569Z,41.41
2022-12-25T04:11:26.550Z,41.73
2022-12-25T04:12:26.511Z,41.73
2022-12-25T04:13:26.509Z,41.25
2022-12-25T04:14:26.489Z,41.89
2022-12-25T04:15:26.562Z,42.54
2022-12-25T04:16:26.553Z,43.18
2022-12-25T04:17:26.450Z,43.34
2022-12-25T04:18:26.471Z,43.18
2022-12-25T04:19:26.487Z,46.08
2022-12-25T04:20:26.439Z,41.41
2022-12-25T04:21:26.438Z,40.93
2022-12-25T04:22:26.452Z,41.57
2022-12-25T04:23:26.419Z,41.25
2022-12-25T04:24:26.413Z,41.57
2022-12-25T04:25:26.415Z,57.20
2022-12-25T04:26:26.389Z,57.85
2022-12-25T04:27:26.433Z,56.07
2022-12-25T04:28:26.381Z,56.72
2022-12-25T04:29:26.394Z,55.91
2022-12-25T04:30:26.380Z,55.43
2022-12-25T04:31:26.491Z,57.20
2022-12-25T04:32:26.380Z,58.17
2022-12-25T04:33:26.361Z,57.69
2022-12-25T04:34:26.354Z,57.85
2022-12-25T04:35:26.341Z,56.88
2022-12-25T04:36:26.317Z,57.04
2022-12-25T04:37:26.351Z,55.91
2022-12-25T04:38:26.310Z,56.40
2022-12-25T04:39:26.317Z,55.43
2022-12-25T04:40:26.320Z,38.83
2022-12-25T04:41:26.283Z,37.87
2022-12-25T04:42:26.308Z,38.99
2022-12-25T04:43:26.263Z,40.12
2022-12-25T04:44:26.271Z,39.64
2022-12-25T04:45:26.262Z,40.28
2022-12-25T04:46:26.305Z,40.61
2022-12-25T04:47:26.256Z,39.96
2022-12-25T04:48:26.251Z,40.28
2022-12-25T04:49:26.230Z,40.44
2022-12-25T04:50:26.218Z,40.77
2022-12-25T04:51:26.207Z,40.28
2022-12-25T04:52:26.249Z,41.25
2022-12-25T04:53:26.195Z,41.57
2022-12-25T04:54:26.205Z,40.93
2022-12-25T04:55:26.176Z,42.06
2022-12-25T04:56:26.192Z,41.73
2022-12-25T04:57:26.199Z,41.09
2022-12-25T04:58:26.158Z,42.54
2022-12-25T04:59:26.157Z,42.54
2022-12-25T05:00:26.144Z,42.86
2022-12-25T05:01:26.263Z,41.09
2022-12-25T05:02:26.400Z,41.25
2022-12-25T05:03:26.197Z,42.22
2022-12-25T05:04:26.105Z,41.89
2022-12-25T05:05:26.095Z,41.57
2022-12-25T05:06:26.102Z,41.09
2022-12-25T05:07:26.121Z,40.61
2022-12-25T05:08:26.084Z,41.57
2022-12-25T05:09:26.092Z,41.89
2022-12-25T05:10:26.067Z,40.77
2022-12-25T05:11:26.051Z,41.89
2022-12-25T05:12:26.073Z,40.77
2022-12-25T05:13:26.042Z,41.57
2022-12-25T05:14:26.050Z,42.22
2022-12-25T05:15:26.052Z,41.73
2022-12-25T05:16:26.072Z,41.25
2022-12-25T05:17:26.023Z,41.89
2022-12-25T05:18:25.996Z,40.93
2022-12-25T05:19:26.004Z,41.57
2022-12-25T05:20:25.978Z,41.73
2022-12-25T05:21:26.015Z,41.73
2022-12-25T05:22:25.992Z,40.77
2022-12-25T05:23:25.993Z,41.41
2022-12-25T05:24:25.962Z,41.41
2022-12-25T05:25:25.948Z,42.70
2022-12-25T05:26:25.926Z,43.02
2022-12-25T05:27:25.973Z,41.73
2022-12-25T05:28:25.917Z,40.77
2022-12-25T05:29:25.939Z,43.18
2022-12-25T05:30:25.899Z,40.93
2022-12-25T05:31:25.924Z,53.82
2022-12-25T05:32:26.912Z,53.17
2022-12-25T05:33:25.891Z,57.52
2022-12-25T05:34:25.898Z,57.36
2022-12-25T05:35:25.871Z,57.52
2022-12-25T05:36:25.851Z,56.56
2022-12-25T05:37:25.869Z,56.72
2022-12-25T05:38:25.832Z,56.40
2022-12-25T05:39:25.831Z,56.24
2022-12-25T05:40:25.836Z,56.24
2022-12-25T05:41:30.630Z,56.24
2022-12-25T05:42:27.835Z,56.72
2022-12-25T05:43:25.801Z,55.27
2022-12-25T05:44:25.813Z,55.59
2022-12-25T05:45:25.797Z,40.77
2022-12-25T05:46:25.859Z,39.96
2022-12-25T05:47:25.763Z,39.80
2022-12-25T05:48:25.760Z,42.06
2022-12-25T05:49:25.739Z,40.77
2022-12-25T05:50:25.733Z,41.89
2022-12-25T05:51:25.711Z,43.34
2022-12-25T05:52:25.716Z,40.61
2022-12-25T05:53:25.753Z,39.80
2022-12-25T05:54:25.695Z,41.57
2022-12-25T05:55:25.694Z,41.25
2022-12-25T05:56:25.694Z,41.25
2022-12-25T05:57:25.710Z,41.25
2022-12-25T05:58:25.687Z,40.93
2022-12-25T05:59:25.662Z,42.70
2022-12-25T06:00:25.657Z,41.41
2022-12-25T06:01:25.686Z,40.61
2022-12-25T06:02:25.884Z,40.61
2022-12-25T06:03:25.707Z,42.06
2022-12-25T06:04:25.624Z,42.38
2022-12-25T06:05:25.632Z,42.22
2022-12-25T06:06:25.619Z,41.89
2022-12-25T06:07:25.593Z,41.41
2022-12-25T06:08:25.616Z,41.57
2022-12-25T06:09:26.582Z,41.41
2022-12-25T06:10:25.588Z,42.54
2022-12-25T06:11:25.591Z,41.73
2022-12-25T06:12:25.560Z,40.77
2022-12-25T06:13:25.574Z,42.06
2022-12-25T06:14:25.549Z,41.89
2022-12-25T06:15:25.568Z,41.41
2022-12-25T06:16:25.555Z,42.06
2022-12-25T06:17:25.518Z,42.22
2022-12-25T06:18:25.542Z,42.38
2022-12-25T06:19:25.510Z,42.06
2022-12-25T06:20:25.524Z,42.70
2022-12-25T06:21:25.503Z,42.22
2022-12-25T06:22:25.499Z,41.57
2022-12-25T06:23:25.553Z,41.57
2022-12-25T06:24:25.485Z,41.57
2022-12-25T06:25:25.457Z,42.06
2022-12-25T06:26:25.459Z,41.89
2022-12-25T06:27:25.445Z,41.09
2022-12-25T06:28:25.466Z,41.25
2022-12-25T06:29:25.434Z,41.25
2022-12-25T06:30:25.426Z,41.41
2022-12-25T06:31:25.467Z,40.93
2022-12-25T06:32:25.420Z,40.77
2022-12-25T06:33:25.432Z,41.25
2022-12-25T06:34:25.396Z,42.22
2022-12-25T06:35:25.395Z,41.41
2022-12-25T06:36:25.409Z,40.93
2022-12-25T06:37:25.367Z,41.57
2022-12-25T06:38:25.382Z,42.06
2022-12-25T06:39:25.356Z,41.73
2022-12-25T06:40:25.353Z,40.93
2022-12-25T06:41:25.364Z,41.57
2022-12-25T06:42:25.328Z,41.25
2022-12-25T06:43:26.355Z,40.12
2022-12-25T06:44:25.324Z,43.83
2022-12-25T06:45:25.348Z,41.09
2022-12-25T06:46:25.389Z,41.57
2022-12-25T06:47:25.301Z,40.28
2022-12-25T06:48:25.323Z,41.25
2022-12-25T06:49:25.275Z,41.09
2022-12-25T06:50:25.271Z,52.53
2022-12-25T06:51:25.287Z,52.69
2022-12-25T06:52:25.250Z,57.04
2022-12-25T06:53:25.292Z,57.04
2022-12-25T06:54:25.258Z,57.69
2022-12-25T06:55:25.240Z,57.04
2022-12-25T06:56:25.233Z,56.40
2022-12-25T06:57:25.214Z,56.24
2022-12-25T06:58:25.264Z,56.88
2022-12-25T06:59:25.203Z,56.07
2022-12-25T07:00:25.235Z,56.24
2022-12-25T07:01:25.312Z,56.56
2022-12-25T07:02:25.361Z,55.75
2022-12-25T07:03:25.234Z,55.91
2022-12-25T07:04:25.170Z,55.43
2022-12-25T07:05:25.164Z,55.43
2022-12-25T07:06:25.172Z,39.80
2022-12-25T07:07:25.145Z,39.80
2022-12-25T07:08:25.174Z,42.06
2022-12-25T07:09:25.137Z,40.61
2022-12-25T07:10:25.122Z,40.61
2022-12-25T07:11:25.106Z,39.96
2022-12-25T07:12:25.104Z,39.96
2022-12-25T07:13:26.252Z,39.96
2022-12-25T07:14:26.089Z,39.96
2022-12-25T07:15:25.074Z,40.77
2022-12-25T07:16:25.122Z,40.93
2022-12-25T07:17:25.066Z,41.25
2022-12-25T07:18:25.094Z,40.77
2022-12-25T07:19:25.044Z,41.57
2022-12-25T07:20:25.040Z,41.09
2022-12-25T07:21:25.044Z,42.54
2022-12-25T07:22:25.034Z,41.09
2022-12-25T07:23:25.045Z,41.41
2022-12-25T07:24:25.019Z,40.44
2022-12-25T07:25:25.003Z,41.73
2022-12-25T07:26:24.994Z,41.41
2022-12-25T07:27:25.004Z,42.06
2022-12-25T07:28:25.019Z,41.73
2022-12-25T07:29:24.986Z,40.77
2022-12-25T07:30:24.990Z,41.73
2022-12-25T07:31:25.018Z,42.06
2022-12-25T07:32:24.948Z,42.06
2022-12-25T07:33:24.980Z,43.83
2022-12-25T07:34:24.950Z,42.54
2022-12-25T07:35:24.935Z,41.89
2022-12-25T07:36:24.926Z,41.41
2022-12-25T07:37:24.919Z,42.22
2022-12-25T07:38:24.947Z,42.22
2022-12-25T07:39:24.922Z,42.54
2022-12-25T07:40:24.900Z,43.02
2022-12-25T07:41:24.896Z,42.86
2022-12-25T07:42:25.431Z,42.54
2022-12-25T07:43:25.912Z,42.70
2022-12-25T07:44:24.853Z,43.34
2022-12-25T07:45:24.856Z,42.38
2022-12-25T07:46:25.002Z,41.25
2022-12-25T07:47:24.833Z,41.89
2022-12-25T07:48:24.860Z,42.22
2022-12-25T07:49:24.822Z,41.41
2022-12-25T07:50:24.806Z,42.38
2022-12-25T07:51:24.801Z,41.73
2022-12-25T07:52:24.819Z,42.22
2022-12-25T07:53:24.821Z,42.38
2022-12-25T07:54:24.788Z,41.89
2022-12-25T07:55:24.789Z,42.38
2022-12-25T07:56:24.782Z,42.06
2022-12-25T07:57:24.766Z,42.06
2022-12-25T07:58:24.796Z,42.38
2022-12-25T07:59:24.748Z,45.12
2022-12-25T08:00:24.737Z,42.86
2022-12-25T08:01:24.989Z,42.86
2022-12-25T08:02:25.043Z,42.06
2022-12-25T08:03:24.969Z,42.70
2022-12-25T08:04:24.710Z,44.63
2022-12-25T08:05:24.699Z,46.08
2022-12-25T08:06:24.708Z,41.89
2022-12-25T08:07:24.678Z,43.51
2022-12-25T08:08:24.708Z,46.25
2022-12-25T08:09:24.696Z,46.25
2022-12-25T08:10:24.708Z,44.63
2022-12-25T08:11:24.663Z,42.54
2022-12-25T08:12:24.642Z,44.31
2022-12-25T08:13:24.644Z,42.22
2022-12-25T08:14:24.653Z,42.54
2022-12-25T08:15:24.643Z,47.05
2022-12-25T08:16:24.659Z,44.15
2022-12-25T08:17:24.619Z,53.98
2022-12-25T08:18:29.506Z,57.20
2022-12-25T08:19:26.614Z,57.04
2022-12-25T08:20:24.599Z,57.52
2022-12-25T08:21:24.589Z,55.75
2022-12-25T08:22:24.573Z,56.07
2022-12-25T08:23:24.572Z,56.40
2022-12-25T08:24:24.581Z,56.24
2022-12-25T08:25:24.547Z,56.88
2022-12-25T08:26:24.566Z,57.20
2022-12-25T08:27:24.540Z,57.04
2022-12-25T08:28:24.529Z,56.40
2022-12-25T08:29:24.561Z,56.72
2022-12-25T08:30:24.515Z,43.67
2022-12-25T08:31:24.537Z,47.21
2022-12-25T08:32:24.501Z,45.76
2022-12-25T08:33:24.500Z,42.06
2022-12-25T08:34:24.505Z,48.82
2022-12-25T08:35:24.479Z,45.28
2022-12-25T08:36:24.481Z,46.57
2022-12-25T08:37:24.463Z,45.12
2022-12-25T08:38:24.471Z,48.66
2022-12-25T08:39:24.523Z,52.85
2022-12-25T08:40:24.445Z,44.63
2022-12-25T08:41:24.434Z,45.92
2022-12-25T08:42:24.422Z,47.05
2022-12-25T08:43:24.423Z,46.41
2022-12-25T08:44:24.439Z,49.63
2022-12-25T08:45:27.345Z,45.44
2022-12-25T08:46:25.482Z,44.63
2022-12-25T08:47:24.392Z,41.41
2022-12-25T08:48:24.386Z,42.06
2022-12-25T08:49:24.405Z,43.02
2022-12-25T08:50:24.398Z,42.22
2022-12-25T08:51:24.371Z,47.21
2022-12-25T08:52:24.358Z,43.83
2022-12-25T08:53:24.367Z,43.83
2022-12-25T08:54:24.775Z,48.82
2022-12-25T08:55:24.384Z,48.50
2022-12-25T08:56:24.320Z,47.21
2022-12-25T08:57:25.265Z,47.53
2022-12-25T08:58:24.315Z,51.24
2022-12-25T08:59:24.330Z,44.47
2022-12-25T09:00:24.302Z,45.12
2022-12-25T09:01:24.379Z,43.02
2022-12-25T09:02:25.580Z,44.79
2022-12-25T09:03:24.425Z,44.47
2022-12-25T09:04:24.277Z,47.70
2022-12-25T09:05:24.240Z,46.89
2022-12-25T09:06:24.243Z,49.31
2022-12-25T09:07:24.218Z,48.02
2022-12-25T09:08:24.248Z,43.51
2022-12-25T09:09:24.250Z,44.63
2022-12-25T09:10:24.236Z,43.34
2022-12-25T09:11:24.202Z,44.15
2022-12-25T09:12:24.180Z,48.02
2022-12-25T09:13:24.187Z,48.98
2022-12-25T09:14:24.314Z,48.34
2022-12-25T09:15:24.172Z,47.86
2022-12-25T09:16:24.239Z,47.37
2022-12-25T09:17:24.159Z,48.18
2022-12-25T09:18:24.148Z,48.02
2022-12-25T09:19:24.166Z,50.27
2022-12-25T09:20:24.131Z,56.56
2022-12-25T09:21:24.118Z,55.91
2022-12-25T09:22:24.125Z,43.18
2022-12-25T09:23:24.099Z,42.70
2022-12-25T09:24:24.135Z,45.44
2022-12-25T09:25:24.117Z,45.60
2022-12-25T09:26:24.105Z,42.06
2022-12-25T09:27:24.086Z,46.73
2022-12-25T09:28:24.063Z,47.53
2022-12-25T09:29:25.096Z,47.21
2022-12-25T09:30:24.055Z,49.79
2022-12-25T09:31:24.120Z,50.11
2022-12-25T09:32:24.066Z,50.27
2022-12-25T09:33:24.070Z,50.92
2022-12-25T09:34:25.134Z,51.40
2022-12-25T09:35:24.080Z,49.15
2022-12-25T09:36:24.078Z,50.27
2022-12-25T09:37:24.037Z,48.34
2022-12-25T09:38:24.001Z,49.95
2022-12-25T09:39:24.030Z,51.08
2022-12-25T09:40:23.986Z,52.85
2022-12-25T09:41:24.007Z,49.31
2022-12-25T09:42:23.974Z,45.28
2022-12-25T09:43:23.965Z,54.14
2022-12-25T09:44:24.013Z,49.95
2022-12-25T09:45:23.945Z,49.15
2022-12-25T09:46:24.027Z,44.96
2022-12-25T09:47:23.970Z,46.08
2022-12-25T09:48:24.070Z,49.95
2022-12-25T09:49:23.971Z,51.24
2022-12-25T09:50:23.925Z,45.60
2022-12-25T09:51:23.902Z,49.63
2022-12-25T09:52:24.035Z,48.34
2022-12-25T09:53:23.981Z,48.34
2022-12-25T09:54:23.899Z,47.86
2022-12-25T09:55:23.909Z,45.28
2022-12-25T09:56:23.874Z,45.60
2022-12-25T09:57:23.873Z,47.70
2022-12-25T09:58:24.101Z,45.12
2022-12-25T09:59:23.870Z,46.89
2022-12-25T10:00:57.571Z,45.28
2022-12-25T10:01:23.855Z,47.37
2022-12-25T10:02:23.991Z,45.60
2022-12-25T10:03:23.859Z,44.63
2022-12-25T10:04:23.811Z,44.47
2022-12-25T10:05:23.840Z,46.73
2022-12-25T10:06:23.820Z,49.31
2022-12-25T10:07:23.777Z,49.31
2022-12-25T10:08:23.765Z,47.21
2022-12-25T10:09:23.752Z,47.70
2022-12-25T10:10:23.787Z,46.73
2022-12-25T10:11:23.780Z,47.70
2022-12-25T10:12:23.737Z,47.53
2022-12-25T10:13:23.737Z,49.63
2022-12-25T10:14:23.793Z,45.92
2022-12-25T10:15:23.788Z,45.12
2022-12-25T10:16:23.759Z,47.53
2022-12-25T10:17:23.696Z,47.37
2022-12-25T10:18:23.685Z,48.02
2022-12-25T10:19:23.708Z,46.41
2022-12-25T10:20:23.686Z,47.21
2022-12-25T10:21:23.690Z,47.21
2022-12-25T10:22:23.734Z,47.86
2022-12-25T10:23:23.661Z,47.86
2022-12-25T10:24:23.672Z,49.15
2022-12-25T10:25:23.674Z,49.15
2022-12-25T10:26:23.781Z,51.88
2022-12-25T10:27:23.618Z,48.02
2022-12-25T10:28:23.703Z,46.89
2022-12-25T10:29:23.621Z,46.25
2022-12-25T10:30:23.625Z,43.02
2022-12-25T10:31:23.640Z,48.82
2022-12-25T10:32:23.593Z,54.46
2022-12-25T10:33:23.600Z,58.65
2022-12-25T10:34:23.568Z,57.85
2022-12-25T10:35:23.585Z,57.20
2022-12-25T10:36:23.557Z,58.97
2022-12-25T10:37:24.212Z,57.20
2022-12-25T10:38:23.537Z,56.88
2022-12-25T10:39:23.574Z,57.69
2022-12-25T10:40:23.589Z,56.72
2022-12-25T10:41:23.535Z,55.75
2022-12-25T10:42:23.509Z,57.04
2022-12-25T10:43:23.498Z,57.69
2022-12-25T10:44:23.499Z,57.04
2022-12-25T10:45:23.512Z,56.88
2022-12-25T10:46:23.596Z,57.20
2022-12-25T10:47:23.473Z,56.88
2022-12-25T10:48:23.473Z,56.72
2022-12-25T10:49:23.517Z,56.24
2022-12-25T10:50:23.495Z,57.20
2022-12-25T10:51:23.438Z,56.24
2022-12-25T10:52:23.447Z,56.88
2022-12-25T10:53:23.421Z,56.40
2022-12-25T10:54:23.433Z,56.24
2022-12-25T10:55:28.461Z,57.52
2022-12-25T10:56:25.434Z,55.11
2022-12-25T10:57:23.387Z,45.76
2022-12-25T10:58:23.380Z,47.86
2022-12-25T10:59:23.382Z,42.70
2022-12-25T11:00:23.405Z,49.47
2022-12-25T11:01:23.501Z,51.24
2022-12-25T11:02:23.666Z,47.53
2022-12-25T11:03:23.519Z,48.34
2022-12-25T11:04:23.343Z,48.18
2022-12-25T11:05:23.357Z,44.79
2022-12-25T11:06:23.323Z,54.30
2022-12-25T11:07:23.312Z,45.44
2022-12-25T11:08:23.300Z,43.02
2022-12-25T11:09:23.294Z,47.21
2022-12-25T11:10:23.303Z,49.31
2022-12-25T11:11:23.306Z,48.50
2022-12-25T11:12:23.276Z,50.92
2022-12-25T11:13:23.267Z,44.47
2022-12-25T11:14:23.254Z,44.15
2022-12-25T11:15:23.241Z,54.46
2022-12-25T11:16:23.334Z,46.08
2022-12-25T11:17:23.239Z,44.47
2022-12-25T11:18:23.277Z,47.21
2022-12-25T11:19:23.279Z,51.08
2022-12-25T11:20:23.204Z,52.37
2022-12-25T11:21:23.240Z,46.89
2022-12-25T11:22:23.192Z,49.63
2022-12-25T11:23:23.179Z,46.25
2022-12-25T11:24:23.423Z,44.79
2022-12-25T11:25:23.171Z,47.70
2022-12-25T11:26:23.195Z,43.18
2022-12-25T11:27:23.157Z,49.79
2022-12-25T11:28:23.153Z,44.96
2022-12-25T11:29:23.141Z,48.34
2022-12-25T11:30:23.152Z,48.34
2022-12-25T11:31:23.180Z,45.28
2022-12-25T11:32:23.122Z,45.44
2022-12-25T11:33:23.115Z,48.02
2022-12-25T11:34:23.133Z,47.86
2022-12-25T11:35:23.153Z,47.86
2022-12-25T11:36:23.114Z,50.76
2022-12-25T11:37:23.087Z,44.79
2022-12-25T11:38:23.069Z,49.31
2022-12-25T11:39:23.075Z,45.12
2022-12-25T11:40:23.066Z,48.18
2022-12-25T11:41:23.096Z,45.12
2022-12-25T11:42:23.043Z,45.44
2022-12-25T11:43:23.025Z,44.15
2022-12-25T11:44:23.020Z,43.51
2022-12-25T11:45:23.015Z,42.54
2022-12-25T11:46:23.089Z,43.67
2022-12-25T11:47:23.032Z,53.17
2022-12-25T11:48:22.999Z,47.70
2022-12-25T11:49:22.990Z,44.15
2022-12-25T11:50:22.978Z,47.21
2022-12-25T11:51:22.990Z,45.60
2022-12-25T11:52:22.964Z,45.28
2022-12-25T11:53:23.021Z,44.96
2022-12-25T11:54:22.969Z,44.63
2022-12-25T11:55:22.945Z,47.21
2022-12-25T11:56:22.967Z,41.89
2022-12-25T11:57:22.944Z,42.54
2022-12-25T11:58:22.923Z,48.98
2022-12-25T11:59:22.912Z,45.60
2022-12-25T12:00:22.907Z,46.89
2022-12-25T12:01:22.941Z,47.05
2022-12-25T12:02:23.043Z,45.92
2022-12-25T12:03:22.978Z,45.92
2022-12-25T12:04:27.622Z,46.73
2022-12-25T12:05:24.853Z,46.73
2022-12-25T12:06:22.847Z,45.12
2022-12-25T12:07:23.176Z,50.27
2022-12-25T12:08:22.847Z,47.37
2022-12-25T12:09:22.880Z,48.02
2022-12-25T12:10:22.818Z,48.18
2022-12-25T12:11:22.836Z,47.70
2022-12-25T12:12:22.841Z,50.43
2022-12-25T12:13:22.804Z,48.50
2022-12-25T12:14:22.795Z,45.28
2022-12-25T12:15:22.799Z,48.02
2022-12-25T12:16:22.860Z,43.83
2022-12-25T12:17:22.798Z,48.66
2022-12-25T12:18:22.766Z,45.60
2022-12-25T12:19:22.749Z,45.12
2022-12-25T12:20:22.750Z,43.51
2022-12-25T12:21:22.748Z,43.51
2022-12-25T12:22:22.891Z,43.51
2022-12-25T12:23:22.722Z,43.67
2022-12-25T12:24:22.721Z,45.12
2022-12-25T12:25:22.728Z,47.86
2022-12-25T12:26:22.758Z,41.89
2022-12-25T12:27:22.743Z,46.08
2022-12-25T12:28:22.739Z,42.06
2022-12-25T12:29:22.700Z,45.28
2022-12-25T12:30:22.671Z,44.63
2022-12-25T12:31:22.698Z,45.44
2022-12-25T12:32:22.692Z,45.60
2022-12-25T12:33:22.645Z,46.41
2022-12-25T12:34:22.643Z,44.47
2022-12-25T12:35:22.643Z,46.41
2022-12-25T12:36:34.497Z,51.40
2022-12-25T12:37:25.178Z,48.50
2022-12-25T12:38:23.604Z,43.51
2022-12-25T12:39:22.612Z,50.92
2022-12-25T12:40:22.590Z,44.79
2022-12-25T12:41:22.582Z,47.05
2022-12-25T12:42:22.602Z,50.60
2022-12-25T12:43:22.564Z,46.08
2022-12-25T12:44:22.578Z,41.09
2022-12-25T12:45:22.545Z,46.89
2022-12-25T12:46:27.985Z,43.99
2022-12-25T12:47:24.570Z,42.54
2022-12-25T12:48:22.529Z,50.76
2022-12-25T12:49:22.523Z,48.66
2022-12-25T12:50:22.554Z,47.21
2022-12-25T12:51:22.531Z,47.53
2022-12-25T12:52:22.542Z,46.89